Time;durP1;ratioP1;P1;durP2;ratioP2;P2;SDS_P1;SDS_P2;PMS_P1;PMS_P2;Temp;Humidity;BMP_temperature;BMP_pressure;BME280_temperature;BME280_humidity;BME280_pressure;Samples;Min_cycle;Max_cycle;Signal;HPM_P1;HPM_P2
2021/01/23 00:01:00;;;;;;;0.60;0.60;;;8.30;99.90;;;;;;5078687;28;20020;-77
2021/01/23 00:03:26;;;;;;;1.77;1.00;;;8.30;99.90;;;;;;5078235;28;20115;-77
2021/01/23 00:05:52;;;;;;;1.10;1.10;;;8.40;99.90;;;;;;5096279;28;20024;-77
2021/01/23 00:08:17;;;;;;;1.17;0.50;;;8.40;99.90;;;;;;5076953;28;20039;-77
2021/01/23 00:10:44;;;;;;;0.85;0.77;;;8.40;99.90;;;;;;5077633;28;20032;-77
2021/01/23 00:13:09;;;;;;;1.48;0.90;;;8.40;99.90;;;;;;5095564;28;20032;-77
2021/01/23 00:15:35;;;;;;;1.05;0.95;;;8.40;99.90;;;;;;5095730;28;20107;-77
2021/01/23 00:18:01;;;;;;;3.38;1.20;;;8.40;99.90;;;;;;5095166;28;20036;-77
2021/01/23 00:20:26;;;;;;;0.88;0.88;;;8.50;99.90;;;;;;5095553;28;20028;-77
2021/01/23 00:22:52;;;;;;;0.75;0.73;;;8.50;99.90;;;;;;5077168;28;20044;-77
2021/01/23 00:25:18;;;;;;;0.98;0.65;;;8.50;99.90;;;;;;5112022;28;20031;-77
2021/01/23 00:27:44;;;;;;;3.50;1.10;;;8.60;99.90;;;;;;5095315;28;20028;-77
2021/01/23 00:30:10;;;;;;;0.80;0.80;;;8.60;99.90;;;;;;5093868;28;20123;-77
2021/01/23 00:32:36;;;;;;;0.60;0.60;;;8.60;99.90;;;;;;5095991;28;20028;-77
2021/01/23 00:35:03;;;;;;;1.60;0.70;;;8.60;99.90;;;;;;5097423;28;20085;-77
2021/01/23 00:37:28;;;;;;;0.70;0.50;;;8.70;99.90;;;;;;5076306;28;20560;-76
2021/01/23 00:39:54;;;;;;;0.70;0.70;;;8.80;99.90;;;;;;5080345;28;20022;-77
2021/01/23 00:42:20;;;;;;;0.30;0.30;;;9.00;99.90;;;;;;5094875;28;20027;-77
2021/01/23 00:44:45;;;;;;;0.40;0.40;;;9.10;99.90;;;;;;5073479;28;20111;-77
2021/01/23 00:47:11;;;;;;;0.70;0.60;;;9.20;99.90;;;;;;5103473;28;20034;-78
2021/01/23 00:49:36;;;;;;;0.82;0.82;;;9.10;99.90;;;;;;5097763;28;20028;-77
2021/01/23 00:52:02;;;;;;;1.73;0.55;;;9.20;99.90;;;;;;5078829;28;20039;-77
2021/01/23 00:54:28;;;;;;;0.50;0.50;;;9.20;99.90;;;;;;5094802;28;20024;-77
2021/01/23 00:56:53;;;;;;;1.83;0.60;;;9.30;99.90;;;;;;5092059;28;20115;-77
2021/01/23 00:59:19;;;;;;;0.82;0.65;;;9.30;99.90;;;;;;5081576;28;20031;-77
2021/01/23 01:01:45;;;;;;;2.65;0.70;;;9.30;99.90;;;;;;5094523;28;20030;-77
2021/01/23 01:04:10;;;;;;;0.98;0.82;;;9.40;99.90;;;;;;5094465;28;20031;-77
2021/01/23 01:06:36;;;;;;;0.73;0.73;;;9.40;99.90;;;;;;5073969;28;20024;-77
2021/01/23 01:09:02;;;;;;;2.15;0.70;;;9.50;99.90;;;;;;5074169;28;20029;-77
2021/01/23 01:11:28;;;;;;;0.80;0.80;;;9.50;99.90;;;;;;5088522;28;20027;-77
2021/01/23 01:13:53;;;;;;;4.28;1.05;;;9.40;99.90;;;;;;5094152;28;20039;-77
2021/01/23 01:16:19;;;;;;;4.45;1.52;;;9.30;99.90;;;;;;5076036;28;20035;-77
2021/01/23 01:18:45;;;;;;;1.25;0.93;;;9.30;99.90;;;;;;5076182;28;20027;-77
2021/01/23 01:21:10;;;;;;;7.10;1.23;;;9.30;99.90;;;;;;5094375;28;20035;-77
2021/01/23 01:23:36;;;;;;;3.70;1.77;;;9.40;99.90;;;;;;5094125;28;20050;-77
2021/01/23 01:26:02;;;;;;;3.38;1.42;;;9.40;99.90;;;;;;5094164;28;20102;-77
2021/01/23 01:28:27;;;;;;;4.40;1.65;;;9.30;99.90;;;;;;5094080;28;20024;-77
2021/01/23 01:30:53;;;;;;;4.40;1.08;;;9.30;99.90;;;;;;5093953;28;20111;-77
2021/01/23 01:33:19;;;;;;;2.15;0.93;;;9.30;99.90;;;;;;5075546;28;20032;-77
2021/01/23 01:35:45;;;;;;;3.20;1.17;;;9.30;99.90;;;;;;5093673;28;20056;-77
2021/01/23 01:38:10;;;;;;;2.40;1.38;;;9.20;99.90;;;;;;5074821;28;20062;-77
2021/01/23 01:40:36;;;;;;;1.83;1.35;;;9.20;99.90;;;;;;5092848;28;20032;-77
2021/01/23 01:43:02;;;;;;;7.20;1.10;;;9.10;99.90;;;;;;5093696;28;20024;-77
2021/01/23 01:45:27;;;;;;;4.90;1.40;;;9.10;99.90;;;;;;5087390;28;20032;-77
2021/01/23 01:47:54;;;;;;;6.38;1.50;;;9.10;99.90;;;;;;5057302;28;20036;-77
2021/01/23 01:50:20;;;;;;;3.65;2.45;;;9.10;99.90;;;;;;5073328;28;20028;-77
2021/01/23 01:52:50;;;;;;;7.32;1.33;;;9.20;99.90;;;;;;5055356;28;20493;-78
2021/01/23 01:55:15;;;;;;;13.02;2.08;;;9.20;99.90;;;;;;5076197;28;20075;-78
2021/01/23 01:57:41;;;;;;;5.13;1.27;;;9.30;99.90;;;;;;5075256;28;20024;-78
2021/01/23 02:00:08;;;;;;;5.80;1.20;;;9.20;99.90;;;;;;5093347;28;20525;-77
2021/01/23 02:02:33;;;;;;;5.28;1.48;;;9.20;99.90;;;;;;5093588;28;20054;-78
2021/01/23 02:05:33;;;;;;;3.80;1.80;;;9.30;99.90;;;;;;5070446;28;20064;-78
2021/01/23 02:08:14;;;;;;;4.90;1.23;;;9.30;99.90;;;;;;5033056;28;20389;-78
2021/01/23 02:11:01;;;;;;;3.92;1.50;;;9.20;99.90;;;;;;5055167;28;20024;-78
2021/01/23 02:13:29;;;;;;;3.17;1.30;;;9.20;99.90;;;;;;5077615;28;20161;-78
2021/01/23 02:16:04;;;;;;;6.78;1.45;;;9.10;99.90;;;;;;5092538;28;20012;-78
2021/01/23 02:18:55;;;;;;;4.70;1.52;;;9.10;99.90;;;;;;5093189;28;20126;-78
2021/01/23 02:21:30;;;;;;;6.45;1.40;;;9.10;99.90;;;;;;5092505;28;20478;-78
2021/01/23 02:24:01;;;;;;;4.00;1.00;;;9.10;99.90;;;;;;5072056;28;20047;-78
2021/01/23 02:26:36;;;;;;;5.85;1.35;;;9.10;99.90;;;;;;5075732;28;20040;-78
2021/01/23 02:29:31;;;;;;;4.80;1.23;;;9.10;99.90;;;;;;5054870;28;20044;-78
2021/01/23 02:32:01;;;;;;;10.63;1.30;;;9.00;99.90;;;;;;5060195;28;20111;-78
2021/01/23 02:34:29;;;;;;;5.68;1.33;;;9.00;99.90;;;;;;5054763;28;20393;-78
2021/01/23 02:36:59;;;;;;;11.02;1.67;;;9.00;99.90;;;;;;5092826;28;20071;-78
2021/01/23 02:39:26;;;;;;;5.97;1.40;;;8.90;99.90;;;;;;5092949;28;20105;-78
2021/01/23 02:41:52;;;;;;;7.45;1.65;;;9.00;99.90;;;;;;5064792;28;20029;-78
2021/01/23 02:44:18;;;;;;;5.90;1.48;;;9.00;99.90;;;;;;5054694;28;20032;-78
2021/01/23 02:46:45;;;;;;;6.47;1.67;;;9.00;99.90;;;;;;5084648;28;20028;-78
2021/01/23 02:49:11;;;;;;;6.53;1.40;;;9.00;99.90;;;;;;5072717;28;20029;-77
2021/01/23 02:51:58;;;;;;;4.22;1.73;;;9.00;99.90;;;;;;5060852;28;20494;-77
2021/01/23 02:54:31;;;;;;;12.20;2.75;;;9.00;99.90;;;;;;5092615;28;20107;-77
2021/01/23 02:57:01;;;;;;;3.67;1.60;;;9.10;99.90;;;;;;5092553;28;20038;-77
2021/01/23 02:59:29;;;;;;;3.40;1.30;;;9.10;99.90;;;;;;5074651;28;20465;-77
2021/01/23 03:01:56;;;;;;;4.45;2.00;;;9.10;99.90;;;;;;5092702;28;20140;-77
2021/01/23 03:04:24;;;;;;;5.72;1.20;;;9.00;99.90;;;;;;5078171;28;20382;-77
2021/01/23 03:06:50;;;;;;;6.55;1.40;;;9.00;99.90;;;;;;5072374;28;20478;-77
2021/01/23 03:09:20;;;;;;;5.30;1.17;;;9.00;99.90;;;;;;5054502;28;20032;-77
2021/01/23 03:11:46;;;;;;;2.38;1.08;;;9.00;99.90;;;;;;5072240;28;20024;-77
2021/01/23 03:14:13;;;;;;;3.38;1.13;;;9.00;99.90;;;;;;5072345;28;20119;-77
2021/01/23 03:16:44;;;;;;;8.40;1.65;;;9.00;99.90;;;;;;5051107;28;20029;-77
2021/01/23 03:19:10;;;;;;;6.05;1.30;;;9.00;99.90;;;;;;5084304;28;20115;-77
2021/01/23 03:21:35;;;;;;;1.42;1.20;;;9.00;99.90;;;;;;5078163;28;20067;-77
2021/01/23 03:24:01;;;;;;;4.53;0.82;;;9.00;99.90;;;;;;5078051;28;20118;-77
2021/01/23 03:26:27;;;;;;;3.05;0.88;;;9.00;99.90;;;;;;5096117;28;20537;-77
2021/01/23 03:28:52;;;;;;;3.97;1.00;;;9.00;99.90;;;;;;5096364;28;20088;-77
2021/01/23 03:31:18;;;;;;;1.50;0.82;;;9.10;99.90;;;;;;5078045;28;20039;-77
2021/01/23 03:33:43;;;;;;;1.60;0.60;;;9.00;99.90;;;;;;5096205;28;20032;-77
2021/01/23 03:36:09;;;;;;;1.05;0.60;;;9.00;99.90;;;;;;5095927;28;20089;-77
2021/01/23 03:38:35;;;;;;;1.85;0.70;;;9.00;99.90;;;;;;5092101;28;20107;-77
2021/01/23 03:41:01;;;;;;;2.35;0.77;;;9.00;99.90;;;;;;5067966;28;20047;-78
2021/01/23 03:43:26;;;;;;;2.03;0.50;;;8.90;99.90;;;;;;5095996;28;20092;-78
2021/01/23 03:45:52;;;;;;;2.00;0.35;;;8.90;99.90;;;;;;5063057;28;20485;-78
2021/01/23 03:48:18;;;;;;;3.30;1.17;;;8.90;99.90;;;;;;5081808;28;20028;-78
2021/01/23 03:50:43;;;;;;;0.40;0.30;;;8.80;99.90;;;;;;5095886;28;20389;-78
2021/01/23 03:53:09;;;;;;;1.20;0.32;;;8.80;99.90;;;;;;5089030;28;20085;-78
2021/01/23 03:55:34;;;;;;;0.88;0.47;;;8.80;99.90;;;;;;5075900;28;20032;-78
2021/01/23 03:58:00;;;;;;;2.80;0.77;;;8.80;99.90;;;;;;5057307;28;20393;-77
2021/01/23 04:00:26;;;;;;;4.68;0.63;;;8.70;99.90;;;;;;5057623;28;20031;-78
2021/01/23 04:02:51;;;;;;;0.30;0.30;;;8.60;99.90;;;;;;5057368;28;20028;-78
2021/01/23 04:05:17;;;;;;;1.35;0.40;;;8.70;99.90;;;;;;5085206;28;20031;-78
2021/01/23 04:07:43;;;;;;;0.30;0.30;;;8.70;99.90;;;;;;5095547;28;20373;-78
2021/01/23 04:10:09;;;;;;;0.30;0.30;;;8.70;99.90;;;;;;5077261;28;20078;-78
2021/01/23 04:12:34;;;;;;;0.20;0.20;;;8.60;99.90;;;;;;5057314;28;20095;-78
2021/01/23 04:15:00;;;;;;;0.90;0.20;;;8.60;99.90;;;;;;5068443;28;20039;-78
2021/01/23 04:17:26;;;;;;;1.00;0.45;;;8.50;99.90;;;;;;5075109;28;20559;-78
2021/01/23 04:19:53;;;;;;;0.55;0.40;;;8.50;99.90;;;;;;5094073;28;20047;-78
2021/01/23 04:22:18;;;;;;;0.10;0.10;;;8.50;99.90;;;;;;5075476;28;20074;-78
2021/01/23 04:24:44;;;;;;;0.20;0.20;;;8.50;99.90;;;;;;5074809;28;20030;-78
2021/01/23 04:27:10;;;;;;;0.20;0.20;;;8.50;99.90;;;;;;5074827;28;20028;-78
2021/01/23 04:29:35;;;;;;;0.22;0.22;;;8.40;99.90;;;;;;5056510;28;20033;-77
2021/01/23 04:32:01;;;;;;;0.20;0.20;;;8.40;99.90;;;;;;5074572;28;20027;-78
2021/01/23 04:34:26;;;;;;;0.30;0.22;;;8.40;99.90;;;;;;5056623;28;20029;-78
2021/01/23 04:36:52;;;;;;;0.25;0.25;;;8.30;99.90;;;;;;5056556;28;20028;-78
2021/01/23 04:39:18;;;;;;;0.43;0.30;;;8.30;99.90;;;;;;5056863;28;20021;-78
2021/01/23 04:41:43;;;;;;;1.85;0.20;;;8.20;99.90;;;;;;5074692;28;20028;-78
2021/01/23 04:44:09;;;;;;;0.35;0.35;;;8.30;99.90;;;;;;5056009;28;20020;-78
2021/01/23 04:46:35;;;;;;;1.17;0.50;;;8.30;99.90;;;;;;5056428;28;20043;-78
2021/01/23 04:49:02;;;;;;;0.20;0.20;;;8.20;99.90;;;;;;5056428;28;20033;-78
2021/01/23 04:51:28;;;;;;;0.30;0.30;;;8.20;99.90;;;;;;5074523;28;20078;-78
2021/01/23 04:53:54;;;;;;;0.20;0.20;;;8.20;99.90;;;;;;5056396;28;20479;-78
2021/01/23 04:56:20;;;;;;;0.75;0.20;;;8.20;99.90;;;;;;5074179;28;20023;-78
2021/01/23 04:58:46;;;;;;;0.15;0.15;;;8.20;99.90;;;;;;5074313;28;20016;-78
2021/01/23 05:01:13;;;;;;;0.30;0.30;;;8.10;99.90;;;;;;5071265;28;20107;-78
2021/01/23 05:04:01;;;;;;;0.20;0.20;;;8.10;99.90;;;;;;5056182;28;20056;-78
2021/01/23 05:06:28;;;;;;;0.13;0.13;;;8.10;99.90;;;;;;5055925;28;20036;-78
2021/01/23 05:08:54;;;;;;;0.20;0.20;;;8.10;99.90;;;;;;5056197;28;20031;-78
2021/01/23 05:11:20;;;;;;;0.20;0.20;;;8.00;99.90;;;;;;5056042;28;20099;-78
2021/01/23 05:14:12;;;;;;;0.32;0.20;;;8.00;99.90;;;;;;5055949;28;20025;-79
2021/01/23 05:16:38;;;;;;;0.20;0.20;;;8.00;99.90;;;;;;5055896;28;20043;-78
2021/01/23 05:19:05;;;;;;;0.10;0.10;;;7.90;99.90;;;;;;5055972;28;20503;-78
2021/01/23 05:21:32;;;;;;;0.17;0.17;;;7.90;99.90;;;;;;5073641;28;20036;-79
2021/01/23 05:24:06;;;;;;;0.10;0.10;;;7.90;99.90;;;;;;5088315;28;20051;-79
2021/01/23 05:26:32;;;;;;;1.55;0.20;;;7.80;99.90;;;;;;5075579;28;20032;-78
2021/01/23 05:29:15;;;;;;;0.40;0.13;;;7.80;99.90;;;;;;5075868;28;20028;-78
2021/01/23 05:31:41;;;;;;;;;;;7.80;99.90;;;;;;5076048;28;20020;-78
2021/01/23 05:34:27;;;;;;;0.13;0.13;;;7.80;99.90;;;;;;5093899;28;19944;-78
2021/01/23 05:36:54;;;;;;;0.28;0.20;;;7.80;99.90;;;;;;5077272;28;20063;-78
2021/01/23 05:39:19;;;;;;;0.20;0.20;;;7.80;99.90;;;;;;5055388;28;20035;-79
2021/01/23 05:42:06;;;;;;;0.20;0.20;;;7.80;99.90;;;;;;5073428;28;20016;-78
2021/01/23 05:44:32;;;;;;;0.20;0.20;;;7.80;99.90;;;;;;5066263;28;20031;-78
2021/01/23 05:46:58;;;;;;;0.20;0.20;;;7.70;99.90;;;;;;5057812;28;20032;-78
2021/01/23 05:49:24;;;;;;;0.22;0.22;;;7.80;99.90;;;;;;5087869;28;20503;-78
2021/01/23 05:51:50;;;;;;;0.20;0.20;;;7.80;99.90;;;;;;5093419;28;20039;-78
2021/01/23 05:54:16;;;;;;;0.65;0.30;;;7.70;99.90;;;;;;5075213;28;20024;-78
2021/01/23 05:56:43;;;;;;;0.30;0.30;;;7.70;99.90;;;;;;5078101;28;20367;-78
2021/01/23 05:59:08;;;;;;;0.30;0.30;;;7.60;99.90;;;;;;5072589;28;20089;-78
2021/01/23 06:01:35;;;;;;;0.28;0.28;;;7.60;99.90;;;;;;5072255;28;20052;-78
2021/01/23 06:04:02;;;;;;;0.82;0.30;;;7.60;99.90;;;;;;5055626;28;20029;-78
2021/01/23 06:06:45;;;;;;;0.30;0.30;;;7.60;99.90;;;;;;5061717;28;20483;-78
2021/01/23 06:09:34;;;;;;;0.30;0.30;;;7.60;99.90;;;;;;5055016;28;20074;-78
2021/01/23 06:12:00;;;;;;;0.20;0.20;;;7.60;99.90;;;;;;5055131;28;20028;-78
2021/01/23 06:14:39;;;;;;;0.28;0.28;;;7.60;99.90;;;;;;5072303;28;20075;-77
2021/01/23 06:17:05;;;;;;;0.40;0.40;;;7.60;99.90;;;;;;5072197;28;20028;-77
2021/01/23 06:19:31;;;;;;;0.40;0.40;;;7.60;99.90;;;;;;5082678;28;20021;-77
2021/01/23 06:21:56;;;;;;;0.40;0.40;;;7.50;99.90;;;;;;5054232;28;20115;-78
2021/01/23 06:24:31;;;;;;;2.35;0.40;;;7.60;99.90;;;;;;5089163;28;20051;-77
2021/01/23 06:27:01;;;;;;;0.30;0.30;;;7.60;99.90;;;;;;5075402;28;20024;-77
2021/01/23 06:29:35;;;;;;;0.40;0.40;;;7.60;99.90;;;;;;5054139;28;20051;-77
2021/01/23 06:32:13;;;;;;;0.40;0.40;;;7.60;99.90;;;;;;5071959;28;20646;-78
2021/01/23 06:34:49;;;;;;;0.38;0.38;;;7.50;99.90;;;;;;5090730;28;20569;-77
2021/01/23 06:37:29;;;;;;;1.65;0.30;;;7.50;99.90;;;;;;5072945;28;20035;-77
2021/01/23 06:40:13;;;;;;;0.32;0.32;;;7.60;99.90;;;;;;5072418;28;20024;-78
2021/01/23 06:42:44;;;;;;;0.40;0.40;;;7.70;99.90;;;;;;5054612;28;20143;-77
2021/01/23 06:45:34;;;;;;;0.50;0.50;;;7.70;99.90;;;;;;5076032;28;20024;-78
2021/01/23 06:47:59;;;;;;;0.90;0.57;;;7.70;99.90;;;;;;5035019;28;20029;-77
2021/01/23 06:50:31;;;;;;;2.85;0.60;;;7.70;99.90;;;;;;5084878;28;20024;-78
2021/01/23 06:52:57;;;;;;;0.32;0.32;;;7.70;99.90;;;;;;5092970;28;20035;-78
2021/01/23 06:55:42;;;;;;;0.30;0.30;;;7.70;99.90;;;;;;5096940;28;20020;-78
2021/01/23 06:58:14;;;;;;;0.98;0.43;;;7.70;99.90;;;;;;5078511;28;20043;-78
2021/01/23 07:00:40;;;;;;;0.57;0.57;;;7.80;99.90;;;;;;5078654;28;20024;-78
2021/01/23 07:03:12;;;;;;;1.02;0.82;;;7.80;99.90;;;;;;5096830;28;20482;-78
2021/01/23 07:05:47;;;;;;;0.82;0.60;;;7.80;99.90;;;;;;5078709;28;20020;-77
2021/01/23 07:08:24;;;;;;;0.50;0.50;;;7.80;99.90;;;;;;5096681;28;20032;-78
2021/01/23 07:11:17;;;;;;;0.47;0.47;;;7.80;99.90;;;;;;5078417;28;20027;-78
2021/01/23 07:14:04;;;;;;;0.38;0.38;;;7.70;99.90;;;;;;5092454;28;20379;-78
2021/01/23 07:16:34;;;;;;;0.80;0.80;;;7.60;99.90;;;;;;5078252;28;20069;-78
2021/01/23 07:19:03;;;;;;;4.68;0.52;;;7.60;99.90;;;;;;5078184;28;20034;-77
2021/01/23 07:21:32;;;;;;;0.80;0.80;;;7.60;99.90;;;;;;5078262;28;20023;-77
2021/01/23 07:23:58;;;;;;;4.03;0.80;;;7.50;99.90;;;;;;5096330;28;20607;-77
2021/01/23 07:26:25;;;;;;;0.90;0.90;;;7.50;99.90;;;;;;5078271;28;20024;-77
2021/01/23 07:28:52;;;;;;;0.57;0.50;;;7.50;99.90;;;;;;5096371;28;20020;-77
2021/01/23 07:31:29;;;;;;;0.30;0.30;;;7.50;99.90;;;;;;5078114;28;20390;-77
2021/01/23 07:33:56;;;;;;;0.35;0.35;;;7.50;99.90;;;;;;5077599;28;20048;-78
2021/01/23 07:36:32;;;;;;;0.30;0.30;;;7.50;99.90;;;;;;5077924;28;20056;-78
2021/01/23 07:38:59;;;;;;;2.00;0.82;;;7.50;99.90;;;;;;5082770;28;20074;-78
2021/01/23 07:41:32;;;;;;;2.17;1.70;;;7.50;99.90;;;;;;5075634;28;20527;-78
2021/01/23 07:44:04;;;;;;;3.85;2.72;;;7.50;99.90;;;;;;5069816;28;20025;-78
2021/01/23 07:46:41;;;;;;;5.20;3.63;;;7.50;99.90;;;;;;5075718;28;20545;-78
2021/01/23 07:49:08;;;;;;;5.40;2.67;;;7.50;99.90;;;;;;5069272;28;20024;-78
2021/01/23 07:51:34;;;;;;;3.50;1.92;;;7.50;99.90;;;;;;5095288;28;20024;-78
2021/01/23 07:54:18;;;;;;;2.22;2.03;;;7.50;99.90;;;;;;5093190;28;20032;-78
2021/01/23 07:56:56;;;;;;;4.05;2.55;;;7.50;99.90;;;;;;5057489;28;20032;-78
2021/01/23 07:59:40;;;;;;;3.83;2.00;;;7.50;99.90;;;;;;5067979;28;20029;-78
2021/01/23 08:02:06;;;;;;;21.90;8.90;;;7.60;99.90;;;;;;5081010;28;20423;-78
2021/01/23 08:04:33;;;;;;;3.72;2.53;;;7.50;99.90;;;;;;5094918;28;20077;-78
2021/01/23 08:07:20;;;;;;;2.25;1.70;;;7.50;99.90;;;;;;5065429;28;20060;-78
2021/01/23 08:10:02;;;;;;;1.00;1.00;;;7.60;99.90;;;;;;5071035;28;20099;-77
2021/01/23 08:12:28;;;;;;;4.07;3.78;;;7.60;99.90;;;;;;5083080;28;20043;-78
2021/01/23 08:14:55;;;;;;;8.90;6.75;;;7.60;99.90;;;;;;5077293;28;20024;-78
2021/01/23 08:17:45;;;;;;;6.47;5.88;;;7.60;99.90;;;;;;5073863;28;20032;-78
2021/01/23 08:20:16;;;;;;;4.20;3.80;;;7.50;99.90;;;;;;5057156;28;20081;-78
2021/01/23 08:23:03;;;;;;;2.60;2.40;;;7.60;99.90;;;;;;5057206;28;20131;-78
2021/01/23 08:25:31;;;;;;;3.30;2.45;;;7.60;99.90;;;;;;5057031;28;20012;-78
2021/01/23 08:27:57;;;;;;;3.83;2.60;;;7.60;99.90;;;;;;5064376;28;20115;-78
2021/01/23 08:30:25;;;;;;;3.85;3.25;;;7.70;99.90;;;;;;5076610;28;20067;-78
2021/01/23 08:32:51;;;;;;;2.67;2.45;;;7.70;99.90;;;;;;5076972;28;20021;-78
2021/01/23 08:35:43;;;;;;;3.63;3.33;;;7.70;99.90;;;;;;5083026;28;20078;-77
2021/01/23 08:38:09;;;;;;;2.97;2.63;;;7.70;99.90;;;;;;5076780;28;20020;-78
2021/01/23 08:40:36;;;;;;;2.53;2.33;;;7.70;99.90;;;;;;5071676;28;20028;-78
2021/01/23 08:43:02;;;;;;;2.70;2.50;;;7.70;99.90;;;;;;5056572;28;20029;-78
2021/01/23 08:45:28;;;;;;;2.00;1.90;;;7.70;99.90;;;;;;5074714;28;20028;-78
2021/01/23 08:47:54;;;;;;;2.40;1.70;;;7.70;99.90;;;;;;5059395;28;20101;-78
2021/01/23 08:50:20;;;;;;;2.00;1.90;;;7.70;99.90;;;;;;5076698;28;20035;-78
2021/01/23 08:52:46;;;;;;;2.70;2.50;;;7.70;99.90;;;;;;5094677;28;20504;-78
2021/01/23 08:55:12;;;;;;;3.00;2.72;;;7.70;99.90;;;;;;5094741;28;20034;-78
2021/01/23 08:57:38;;;;;;;3.17;2.88;;;7.70;99.90;;;;;;5063657;28;20036;-78
2021/01/23 09:00:09;;;;;;;3.58;3.28;;;7.80;99.90;;;;;;5055018;28;20117;-78
2021/01/23 09:02:35;;;;;;;3.47;3.22;;;7.70;99.90;;;;;;5068876;28;20027;-78
2021/01/23 09:05:01;;;;;;;3.63;3.33;;;7.70;99.90;;;;;;5076681;28;20024;-78
2021/01/23 09:07:27;;;;;;;2.67;2.47;;;7.70;99.90;;;;;;5076296;28;20024;-78
2021/01/23 09:09:53;;;;;;;7.80;2.90;;;7.70;99.90;;;;;;5061359;28;20423;-78
2021/01/23 09:12:19;;;;;;;3.45;2.97;;;7.80;99.90;;;;;;5063773;28;20523;-78
2021/01/23 09:14:45;;;;;;;4.35;3.88;;;7.80;99.90;;;;;;5079565;28;20024;-78
2021/01/23 09:17:12;;;;;;;2.45;2.25;;;7.70;99.90;;;;;;5088082;28;20078;-78
2021/01/23 09:19:37;;;;;;;2.58;2.38;;;7.80;99.90;;;;;;5099279;28;20492;-78
2021/01/23 09:22:03;;;;;;;2.70;2.50;;;7.80;99.90;;;;;;5071204;28;20051;-77
2021/01/23 09:24:29;;;;;;;2.53;2.28;;;7.80;99.90;;;;;;5089910;28;20123;-78
2021/01/23 09:26:54;;;;;;;2.70;2.50;;;7.80;99.90;;;;;;5089572;28;20031;-78
2021/01/23 09:29:20;;;;;;;1.48;1.35;;;7.70;99.90;;;;;;5069208;28;20028;-78
2021/01/23 09:31:46;;;;;;;1.15;0.90;;;7.70;99.90;;;;;;5070100;28;20123;-78
2021/01/23 09:34:14;;;;;;;3.70;3.40;;;7.70;99.90;;;;;;5081338;28;20085;-78
2021/01/23 09:36:40;;;;;;;4.45;3.42;;;7.70;99.90;;;;;;5082844;28;20016;-78
2021/01/23 09:39:06;;;;;;;1.73;1.58;;;7.60;99.90;;;;;;5073450;28;20069;-78
2021/01/23 09:41:31;;;;;;;1.23;1.23;;;7.60;99.90;;;;;;5070567;28;20021;-78
2021/01/23 09:43:57;;;;;;;2.95;1.77;;;7.60;99.90;;;;;;5111561;28;20736;-78
2021/01/23 09:46:23;;;;;;;2.30;2.08;;;7.70;99.90;;;;;;5090855;28;20431;-78
2021/01/23 09:48:48;;;;;;;2.88;2.65;;;7.70;99.90;;;;;;5081485;28;20024;-78
2021/01/23 09:51:14;;;;;;;3.67;2.75;;;7.70;99.90;;;;;;5060428;28;20027;-78
2021/01/23 09:53:40;;;;;;;1.85;1.75;;;7.70;99.90;;;;;;5058119;28;20389;-78
2021/01/23 09:56:06;;;;;;;2.22;1.85;;;7.70;99.90;;;;;;5064065;28;20062;-78
2021/01/23 09:58:32;;;;;;;2.47;2.28;;;7.80;99.90;;;;;;5053547;28;20032;-78
2021/01/23 10:00:57;;;;;;;1.70;1.60;;;7.80;99.90;;;;;;5050461;28;20024;-78
2021/01/23 10:03:23;;;;;;;1.30;1.00;;;7.80;99.90;;;;;;5089108;28;20024;-78
2021/01/23 10:05:49;;;;;;;1.15;1.15;;;7.80;99.90;;;;;;5064548;28;20635;-78
2021/01/23 10:08:15;;;;;;;1.30;1.30;;;7.90;99.90;;;;;;5052377;28;20498;-77
2021/01/23 10:10:41;;;;;;;1.38;1.20;;;7.90;99.90;;;;;;5051041;28;20111;-78
2021/01/23 10:13:06;;;;;;;2.60;2.42;;;7.90;99.90;;;;;;5052001;28;20025;-78
2021/01/23 10:15:33;;;;;;;1.92;1.83;;;8.00;99.90;;;;;;5083232;28;20358;-78
2021/01/23 10:18:03;;;;;;;3.20;2.90;;;8.00;99.90;;;;;;5089753;28;20024;-78
2021/01/23 10:20:28;;;;;;;4.20;2.72;;;8.00;99.90;;;;;;5061381;28;20481;-77
2021/01/23 10:22:54;;;;;;;3.00;2.75;;;8.10;99.90;;;;;;5080613;28;20047;-78
2021/01/23 10:25:21;;;;;;;2.40;2.20;;;8.10;99.90;;;;;;5059224;28;20043;-77
2021/01/23 10:27:47;;;;;;;4.43;3.00;;;8.10;99.90;;;;;;5081513;28;20098;-78
2021/01/23 10:30:13;;;;;;;4.57;3.00;;;8.10;99.90;;;;;;5066359;28;20032;-77
2021/01/23 10:32:39;;;;;;;4.53;4.07;;;8.00;99.90;;;;;;5088125;28;20032;-77
2021/01/23 10:35:06;;;;;;;3.53;3.22;;;8.00;99.90;;;;;;5060372;28;20107;-77
2021/01/23 10:37:31;;;;;;;4.78;4.38;;;8.00;99.90;;;;;;5082007;28;20645;-77
2021/01/23 10:39:57;;;;;;;6.22;5.13;;;7.90;99.90;;;;;;5106088;28;20020;-77
2021/01/23 10:42:23;;;;;;;5.43;4.75;;;7.90;99.90;;;;;;5104656;28;20027;-78
2021/01/23 10:44:48;;;;;;;6.28;5.68;;;7.90;99.90;;;;;;5065401;28;20505;-77
2021/01/23 10:47:14;;;;;;;7.10;6.40;;;7.90;99.90;;;;;;5084151;28;20020;-78
2021/01/23 10:49:40;;;;;;;5.78;5.20;;;7.90;99.90;;;;;;5070456;28;20031;-77
2021/01/23 10:52:06;;;;;;;5.05;4.55;;;7.90;99.90;;;;;;5085423;28;20477;-78
2021/01/23 10:54:31;;;;;;;6.55;4.57;;;7.90;99.90;;;;;;5089301;28;20495;-77
2021/01/23 10:56:57;;;;;;;6.00;4.18;;;7.90;99.90;;;;;;5064279;28;20035;-77
2021/01/23 10:59:23;;;;;;;4.28;3.88;;;7.90;99.90;;;;;;5100026;28;20032;-77
2021/01/23 11:01:48;;;;;;;5.05;4.55;;;7.80;99.90;;;;;;5076153;28;20100;-77
2021/01/23 11:04:15;;;;;;;5.50;4.97;;;7.90;99.90;;;;;;5072354;28;20024;-77
2021/01/23 11:06:41;;;;;;;5.70;5.15;;;7.80;99.90;;;;;;5070387;28;20055;-77
2021/01/23 11:09:07;;;;;;;7.32;5.38;;;7.80;99.90;;;;;;5069009;28;20027;-77
2021/01/23 11:11:33;;;;;;;8.95;8.10;;;7.90;99.90;;;;;;5094379;28;20593;-77
2021/01/23 11:13:59;;;;;;;9.20;8.05;;;7.80;99.90;;;;;;5094450;28;20028;-77
2021/01/23 11:16:25;;;;;;;11.85;8.43;;;7.90;99.90;;;;;;5094171;28;20106;-77
2021/01/23 11:18:51;;;;;;;13.63;8.73;;;7.90;99.90;;;;;;5075405;28;20078;-77
2021/01/23 11:21:17;;;;;;;13.32;10.07;;;7.90;99.90;;;;;;5086139;28;20032;-77
2021/01/23 11:23:42;;;;;;;11.45;9.63;;;7.90;99.90;;;;;;5077478;28;20064;-80
2021/01/23 11:26:08;;;;;;;13.55;10.65;;;7.90;99.90;;;;;;5069438;28;20032;-81
2021/01/23 11:28:34;;;;;;;15.43;11.45;;;7.90;99.90;;;;;;5068181;28;20037;-80
2021/01/23 11:31:00;;;;;;;12.90;9.75;;;8.00;99.90;;;;;;5076495;28;20060;-79
2021/01/23 11:33:26;;;;;;;15.07;11.75;;;7.90;99.90;;;;;;5084200;28;20428;-79
2021/01/23 11:35:52;;;;;;;14.13;11.57;;;7.90;99.90;;;;;;5091796;28;20020;-78
2021/01/23 11:38:17;;;;;;;14.90;10.88;;;7.90;99.90;;;;;;5092012;28;20543;-77
2021/01/23 11:40:43;;;;;;;16.23;12.13;;;7.90;99.90;;;;;;5078523;28;20020;-78
2021/01/23 11:43:10;;;;;;;20.35;14.25;;;7.90;99.90;;;;;;5055619;28;20029;-80
2021/01/23 11:45:36;;;;;;;19.40;13.52;;;7.90;99.90;;;;;;5068184;28;20035;-79
2021/01/23 11:48:02;;;;;;;19.95;14.50;;;7.90;99.90;;;;;;5057948;28;20877;-81
2021/01/23 11:50:28;;;;;;;19.08;13.93;;;8.00;99.90;;;;;;5083649;28;20095;-81
2021/01/23 11:52:53;;;;;;;13.88;11.70;;;8.00;99.90;;;;;;5088568;28;20012;-80
2021/01/23 11:55:19;;;;;;;16.25;11.57;;;8.10;99.90;;;;;;5068603;28;20020;-79
2021/01/23 11:57:44;;;;;;;16.85;12.23;;;8.10;99.90;;;;;;5064346;28;20385;-81
2021/01/23 12:00:11;;;;;;;13.65;11.43;;;8.10;99.90;;;;;;5065679;28;20070;-80
2021/01/23 12:02:39;;;;;;;17.45;12.70;;;8.10;99.90;;;;;;5067115;28;20029;-80
2021/01/23 12:05:19;;;;;;;17.60;12.80;;;8.20;99.90;;;;;;5056913;28;20042;-80
2021/01/23 12:07:47;;;;;;;16.40;13.25;;;8.20;99.90;;;;;;5052628;28;20031;-79
2021/01/23 12:10:16;;;;;;;17.83;13.00;;;8.20;99.90;;;;;;5088977;28;20497;-81
2021/01/23 12:12:43;;;;;;;15.20;12.95;;;8.20;99.90;;;;;;5098824;28;20380;-79
2021/01/23 12:15:09;;;;;;;18.15;13.55;;;8.10;99.90;;;;;;5070709;28;20031;-80
2021/01/23 12:17:35;;;;;;;15.35;11.15;;;8.20;99.90;;;;;;5071628;28;20032;-79
2021/01/23 12:20:01;;;;;;;15.30;12.55;;;8.10;99.90;;;;;;5089251;28;20024;-80
2021/01/23 12:22:27;;;;;;;14.65;11.57;;;8.10;99.90;;;;;;5070121;28;20027;-80
2021/01/23 12:24:52;;;;;;;15.45;11.35;;;8.10;99.90;;;;;;5059115;28;20043;-80
2021/01/23 12:27:18;;;;;;;14.48;10.90;;;8.10;99.90;;;;;;5069598;28;20021;-78
2021/01/23 12:29:44;;;;;;;17.67;13.45;;;8.10;99.90;;;;;;5067896;28;20050;-78
2021/01/23 12:32:10;;;;;;;15.60;12.48;;;8.10;99.90;;;;;;5051411;28;20025;-79
2021/01/23 12:34:36;;;;;;;17.08;12.80;;;8.10;99.90;;;;;;5064807;28;20043;-79
2021/01/23 12:37:02;;;;;;;16.85;12.82;;;8.10;99.90;;;;;;5088872;28;20052;-81
2021/01/23 12:39:27;;;;;;;18.27;13.50;;;8.10;99.90;;;;;;5070206;28;20127;-80
2021/01/23 12:41:53;;;;;;;16.63;13.07;;;8.10;99.90;;;;;;5071729;28;20776;-80
2021/01/23 12:44:19;;;;;;;15.63;12.80;;;8.10;99.90;;;;;;5069515;28;20024;-79
2021/01/23 12:46:44;;;;;;;18.08;11.18;;;8.10;99.90;;;;;;5071819;28;20038;-79
2021/01/23 12:49:10;;;;;;;5.20;4.28;;;8.10;99.90;;;;;;5069989;28;20035;-80
2021/01/23 12:51:36;;;;;;;8.82;7.10;;;8.10;99.90;;;;;;5070393;28;20024;-80
2021/01/23 12:54:03;;;;;;;2.85;2.65;;;8.20;99.90;;;;;;5087490;28;20107;-79
2021/01/23 12:56:28;;;;;;;1.48;0.93;;;8.20;99.90;;;;;;5070537;28;20157;-79
2021/01/23 12:58:54;;;;;;;2.10;2.00;;;8.40;99.90;;;;;;5087363;28;20103;-78
2021/01/23 13:01:20;;;;;;;0.75;0.70;;;8.40;99.90;;;;;;5070754;28;20019;-78